aviador You're here:

OPSK Decoded Metar

SUKKUR in PAKISTAN
Report Time2017-06-29 12:00:00
UTC Time2017-06-29 12:32:37
Flight Rules mvfr MVFR
Wind090° at 10 kt
W.Decomp.*RWY 14: 6.4 kt HW 7.7 kt LCW
W.Rank090° ranks 4
Current wind is above 090° avg. (6.4)
Visibility5000 m
Phenomena:Haze
Clouds:Few 040 Hf
Expected CloudBase > 5,600 ft AGL from Temp-Dew spread
CeilingNone
Temp37°C (ISA +22)
Dew Point23°C (44% RH)
Heat Index42.9°C
QNH0994 hPa
Density Alt3,727 ft
Elevation190 ft
Report Wrong Elevation
Raw Report
OPSK 291200Z 09010KT 5000 HZ FEW040 37/23 Q0994 NOSIG=

Extra information for OPSK:More info

Metar Taf Metar & Taf Last 4 Metars F.Rules Stats Wind Profile Meteogram Temp Stats Airport Information Weather charts Add Link Nearby VenuesMetar ALERT Operation Metar Decoded Social comments